Time;durP1;ratioP1;P1;durP2;ratioP2;P2;SDS_P1;SDS_P2;PMS_P1;PMS_P2;Temp;Humidity;BMP_temperature;BMP_pressure;BME280_temperature;BME280_humidity;BME280_pressure;Samples;Min_cycle;Max_cycle;Signal;HPM_P1;HPM_P2
2022/05/06 00:01:53;;;;;;;42.47;28.65;;;;;;;14.90;61.09;102414.91;5010928;28;20041;-65
2022/05/06 00:04:18;;;;;;;42.17;27.98;;;;;;;14.82;61.24;102418.91;5011174;28;20420;-65
2022/05/06 00:06:43;;;;;;;40.72;27.50;;;;;;;14.83;61.37;102409.41;5011445;28;20030;-65
2022/05/06 00:09:08;;;;;;;37.17;27.15;;;;;;;14.79;61.33;102411.00;5011257;28;20025;-65
2022/05/06 00:11:37;;;;;;;40.60;27.50;;;;;;;14.65;61.61;102413.19;5011801;28;20607;-65
2022/05/06 00:14:04;;;;;;;40.95;28.27;;;;;;;14.65;61.82;102417.91;5010453;28;20515;-65
2022/05/06 00:16:29;;;;;;;37.85;27.08;;;;;;;14.61;61.77;102419.50;5011685;28;20026;-65
2022/05/06 00:19:00;;;;;;;39.80;27.67;;;;;;;14.62;61.56;102415.59;5011178;28;20071;-66
2022/05/06 00:21:26;;;;;;;39.73;28.67;;;;;;;14.55;61.91;102428.88;5011397;28;20029;-65
2022/05/06 00:23:51;;;;;;;38.03;27.17;;;;;;;14.58;61.93;102431.16;5011575;28;20041;-65
2022/05/06 00:26:16;;;;;;;42.33;26.60;;;;;;;14.60;61.88;102426.19;5011620;28;20500;-65
2022/05/06 00:28:41;;;;;;;39.72;27.08;;;;;;;14.52;62.13;102430.19;5010738;28;20065;-65
2022/05/06 00:31:07;;;;;;;38.92;27.55;;;;;;;14.51;61.88;102420.09;5011467;28;20033;-65
2022/05/06 00:33:33;;;;;;;42.30;28.15;;;;;;;14.49;62.26;102430.66;5010925;28;20124;-65
2022/05/06 00:36:01;;;;;;;40.58;26.90;;;;;;;14.45;62.30;102433.06;5011363;28;20047;-65
2022/05/06 00:38:27;;;;;;;40.92;27.73;;;;;;;14.45;62.06;102429.41;5011290;28;20034;-65
2022/05/06 00:40:53;;;;;;;41.13;27.65;;;;;;;14.44;62.15;102428.56;5011313;28;20029;-65
2022/05/06 00:43:20;;;;;;;38.72;26.60;;;;;;;14.43;62.42;102429.66;5010680;28;20034;-65
2022/05/06 00:45:52;;;;;;;40.05;27.10;;;;;;;14.40;62.08;102430.13;5010990;28;20045;-65
2022/05/06 00:48:18;;;;;;;42.47;27.67;;;;;;;14.40;62.03;102426.50;5011020;28;20065;-66
2022/05/06 00:50:44;;;;;;;40.08;27.83;;;;;;;14.37;62.25;102422.22;5011121;28;20351;-65
2022/05/06 00:53:09;;;;;;;38.85;27.80;;;;;;;14.31;62.70;102423.22;5010876;28;20175;-65
2022/05/06 00:55:35;;;;;;;40.80;26.67;;;;;;;14.30;62.72;102420.63;5011114;28;20032;-65
2022/05/06 00:58:02;;;;;;;39.88;27.42;;;;;;;14.22;62.60;102419.88;5010735;28;20026;-65
2022/05/06 01:00:28;;;;;;;42.38;27.77;;;;;;;14.20;62.13;102424.03;5010917;28;20141;-65
2022/05/06 01:02:53;;;;;;;40.05;27.08;;;;;;;14.18;62.55;102429.84;5010669;28;20112;-65
2022/05/06 01:05:24;;;;;;;38.95;27.50;;;;;;;14.21;62.13;102426.56;5010961;28;20030;-66
2022/05/06 01:07:51;;;;;;;39.13;28.10;;;;;;;14.13;62.55;102423.28;5011104;28;20527;-65
2022/05/06 01:10:21;;;;;;;39.55;26.80;;;;;;;14.10;62.79;102429.34;5010299;28;20362;-65
2022/05/06 01:12:47;;;;;;;41.72;28.92;;;;;;;14.10;62.45;102432.97;5010868;28;20068;-65
2022/05/06 01:15:17;;;;;;;39.03;26.60;;;;;;;14.14;62.57;102436.13;5011795;28;20022;-65
2022/05/06 01:17:43;;;;;;;41.40;27.65;;;;;;;14.15;62.54;102426.69;5014100;28;20752;-66
2022/05/06 01:20:11;;;;;;;39.85;27.15;;;;;;;14.05;62.27;102423.63;5014745;28;20064;-65
2022/05/06 01:22:38;;;;;;;39.00;27.80;;;;;;;13.98;62.82;102432.94;5014392;28;20030;-66
2022/05/06 01:25:04;;;;;;;42.22;28.48;;;;;;;14.00;63.12;102433.56;5014119;28;20032;-65
2022/05/06 01:27:35;;;;;;;43.03;27.75;;;;;;;13.98;63.01;102440.47;5014354;28;20452;-65
2022/05/06 01:30:01;;;;;;;43.45;29.23;;;;;;;13.97;62.97;102428.44;5013921;28;20054;-64
2022/05/06 01:32:28;;;;;;;44.70;28.02;;;;;;;13.94;63.31;102440.09;5013844;28;20034;-64
2022/05/06 01:34:55;;;;;;;44.10;30.05;;;;;;;13.94;63.33;102439.22;5013353;28;20116;-64
2022/05/06 01:37:23;;;;;;;47.20;29.90;;;;;;;13.83;63.60;102437.25;5014100;28;20036;-64
2022/05/06 01:39:53;;;;;;;53.65;31.75;;;;;;;13.84;63.50;102441.75;5013796;28;20038;-65
2022/05/06 01:42:20;;;;;;;49.10;30.05;;;;;;;13.77;63.63;102439.06;5014295;28;20040;-65
2022/05/06 01:44:47;;;;;;;45.38;30.27;;;;;;;13.83;63.59;102434.44;5013858;28;20034;-65
2022/05/06 01:47:18;;;;;;;47.08;30.30;;;;;;;13.79;63.56;102433.22;5013473;28;20125;-65
2022/05/06 01:49:46;;;;;;;50.22;31.85;;;;;;;13.80;63.55;102435.78;5014306;28;20057;-64
2022/05/06 01:52:15;;;;;;;49.10;31.15;;;;;;;13.76;63.66;102431.78;5014276;28;20093;-64
2022/05/06 01:54:41;;;;;;;48.97;30.88;;;;;;;13.74;63.66;102436.72;5013516;28;20040;-64
2022/05/06 01:57:06;;;;;;;44.78;30.48;;;;;;;13.68;63.77;102432.09;5014081;28;20393;-64
2022/05/06 01:59:31;;;;;;;46.88;31.23;;;;;;;13.59;64.19;102430.69;5013763;28;20033;-65
2022/05/06 02:01:57;;;;;;;47.13;30.98;;;;;;;13.66;64.25;102443.47;5014162;28;20388;-65
2022/05/06 02:07:06;;;;;;;47.35;31.65;;;;;;;13.59;64.12;102444.66;5013727;28;20108;-64
2022/05/06 02:09:37;;;;;;;44.55;30.17;;;;;;;13.54;64.25;102437.00;5013781;28;20432;-64
2022/05/06 02:12:02;;;;;;;48.05;32.00;;;;;;;13.51;64.30;102432.72;5014034;28;20032;-64
2022/05/06 02:14:28;;;;;;;47.53;31.35;;;;;;;13.46;64.74;102442.91;5012910;28;20026;-64
2022/05/06 02:16:53;;;;;;;44.95;29.88;;;;;;;13.47;64.68;102437.06;5013893;28;20057;-65
2022/05/06 02:19:18;;;;;;;45.17;30.40;;;;;;;13.45;64.71;102444.84;5013427;28;20022;-65
2022/05/06 02:21:44;;;;;;;44.05;30.15;;;;;;;13.44;64.77;102442.25;5013078;28;20447;-65
2022/05/06 02:24:09;;;;;;;46.10;30.70;;;;;;;13.42;64.47;102441.66;5013180;28;20029;-64
2022/05/06 02:26:34;;;;;;;42.65;29.52;;;;;;;13.41;64.49;102449.19;5012929;28;20040;-64
2022/05/06 02:29:03;;;;;;;44.38;29.13;;;;;;;13.36;64.55;102440.66;5012824;28;20493;-64
2022/05/06 02:34:16;;;;;;;39.75;28.20;;;;;;;13.30;64.81;102447.16;5012897;28;20106;-65
2022/05/06 02:36:43;;;;;;;45.45;28.75;;;;;;;13.31;64.91;102453.59;5012987;28;20481;-65
2022/05/06 02:39:08;;;;;;;40.10;27.27;;;;;;;13.35;64.72;102454.81;5013437;28;20054;-65
2022/05/06 02:41:34;;;;;;;41.40;28.45;;;;;;;13.23;65.16;102452.81;5013423;28;20077;-65
2022/05/06 02:43:59;;;;;;;38.97;27.73;;;;;;;13.21;64.69;102445.75;5013027;28;20031;-64
2022/05/06 02:46:25;;;;;;;39.67;28.23;;;;;;;13.21;65.04;102449.38;5012724;28;20046;-65
2022/05/06 02:48:50;;;;;;;41.47;28.50;;;;;;;13.23;64.72;102451.97;5012467;28;20468;-65
2022/05/06 02:51:15;;;;;;;34.85;26.00;;;;;;;13.19;64.96;102451.53;5013250;28;20472;-65
2022/05/06 02:53:43;;;;;;;34.80;25.88;;;;;;;13.16;64.95;102456.72;5012598;28;20072;-65
2022/05/06 02:56:09;;;;;;;34.38;25.55;;;;;;;13.08;64.54;102454.22;5010147;28;20473;-64
2022/05/06 02:58:34;;;;;;;33.53;25.38;;;;;;;13.15;64.72;102457.81;5013075;28;20181;-64
2022/05/06 03:00:59;;;;;;;33.70;25.67;;;;;;;13.08;64.95;102454.22;5012509;28;20425;-64
2022/05/06 03:03:25;;;;;;;35.83;24.33;;;;;;;13.12;64.84;102453.53;5012347;28;20084;-64
2022/05/06 03:05:50;;;;;;;33.08;23.73;;;;;;;13.06;64.90;102446.13;5012696;28;20026;-64
2022/05/06 03:08:15;;;;;;;35.92;24.70;;;;;;;13.02;65.10;102459.66;5012795;28;20037;-64
2022/05/06 03:10:41;;;;;;;35.35;26.17;;;;;;;12.95;64.92;102456.09;5012141;28;20042;-64
2022/05/06 03:13:07;;;;;;;32.58;24.48;;;;;;;13.07;64.88;102456.19;5012662;28;20527;-64
2022/05/06 03:15:32;;;;;;;33.00;24.33;;;;;;;12.96;65.32;102456.94;5012288;28;20030;-64
2022/05/06 03:17:57;;;;;;;30.92;22.77;;;;;;;12.92;65.35;102450.13;5012167;28;20393;-64
2022/05/06 03:20:23;;;;;;;32.70;23.98;;;;;;;12.87;65.49;102453.59;5012596;28;20080;-64
2022/05/06 03:22:50;;;;;;;34.65;24.33;;;;;;;12.87;65.05;102444.38;5012116;28;20393;-64
2022/05/06 03:25:17;;;;;;;30.92;23.42;;;;;;;12.82;65.37;102449.81;5012225;28;20064;-64
2022/05/06 03:30:28;;;;;;;30.67;22.50;;;;;;;12.82;65.65;102447.88;5012433;28;20064;-64
2022/05/06 03:32:58;;;;;;;31.88;22.17;;;;;;;12.82;65.29;102441.44;5012082;28;20092;-64
2022/05/06 03:35:26;;;;;;;29.08;22.25;;;;;;;12.81;65.38;102445.28;5011826;28;20030;-64
2022/05/06 03:37:52;;;;;;;29.42;22.48;;;;;;;12.78;65.27;102449.41;5012116;28;20156;-64
2022/05/06 03:40:21;;;;;;;31.38;22.05;;;;;;;12.80;65.54;102447.22;5011027;28;20864;-64
2022/05/06 03:42:46;;;;;;;29.35;21.67;;;;;;;12.73;65.53;102452.00;5011367;28;20477;-64
2022/05/06 03:45:11;;;;;;;31.65;22.10;;;;;;;12.71;65.47;102448.63;5011665;28;20049;-65
2022/05/06 03:47:42;;;;;;;28.00;20.08;;;;;;;12.76;65.61;102455.19;5012180;28;20026;-64
2022/05/06 03:52:52;;;;;;;29.83;21.67;;;;;;;12.67;65.53;102439.84;5011862;28;20080;-64
2022/05/06 03:55:18;;;;;;;28.08;20.92;;;;;;;12.70;65.54;102450.56;5011715;28;20026;-65
2022/05/06 03:57:50;;;;;;;29.17;21.63;;;;;;;12.59;66.05;102442.09;5011971;28;20029;-65
2022/05/06 04:00:26;;;;;;;30.33;21.27;;;;;;;12.69;65.87;102448.84;5011610;28;20046;-65
2022/05/06 04:02:51;;;;;;;27.50;21.15;;;;;;;12.70;65.79;102446.91;5011984;28;20034;-65
2022/05/06 04:05:17;;;;;;;31.45;21.58;;;;;;;12.62;66.44;102461.13;5011274;28;20033;-65
2022/05/06 04:07:42;;;;;;;29.50;21.15;;;;;;;12.59;66.57;102458.81;5011354;28;20025;-65
2022/05/06 04:10:08;;;;;;;30.10;21.15;;;;;;;12.58;66.64;102455.16;5011523;28;20061;-65
2022/05/06 04:12:33;;;;;;;28.88;21.00;;;;;;;12.61;66.29;102457.47;5011698;28;20496;-65
2022/05/06 04:14:58;;;;;;;28.25;20.00;;;;;;;12.61;66.85;102459.41;5011235;28;20026;-65
2022/05/06 04:17:24;;;;;;;24.25;19.00;;;;;;;12.64;66.49;102464.53;5011303;28;20069;-65
2022/05/06 04:25:21;;;;;;;25.92;19.27;;;;;;;12.55;66.29;102452.81;4992184;28;20038;-65
2022/05/06 04:27:47;;;;;;;24.35;18.98;;;;;;;12.58;66.72;102457.09;5010230;28;20030;-65
2022/05/06 04:30:12;;;;;;;26.77;19.52;;;;;;;12.53;66.40;102468.91;5011179;28;20038;-65
2022/05/06 04:32:38;;;;;;;26.40;19.30;;;;;;;12.45;66.56;102464.47;5011188;28;20473;-65
2022/05/06 04:35:06;;;;;;;25.73;17.05;;;;;;;12.44;66.80;102471.13;5010963;28;20033;-66
2022/05/06 04:37:37;;;;;;;27.67;19.58;;;;;;;12.55;66.40;102471.47;5011548;28;20056;-65
2022/05/06 04:40:06;;;;;;;25.17;19.48;;;;;;;12.48;67.07;102472.38;5011441;28;20021;-65
2022/05/06 04:42:32;;;;;;;24.48;19.30;;;;;;;12.46;67.42;102466.19;5010533;28;20034;-65
2022/05/06 04:44:57;;;;;;;24.08;18.02;;;;;;;12.42;67.36;102475.22;5011558;28;20049;-65
2022/05/06 04:47:22;;;;;;;23.60;18.50;;;;;;;12.46;66.93;102473.69;5011002;28;20401;-65
2022/05/06 04:49:47;;;;;;;26.92;18.98;;;;;;;12.41;67.21;102477.13;5011535;28;20049;-65
2022/05/06 04:52:12;;;;;;;23.70;19.02;;;;;;;12.40;67.30;102478.22;5015045;28;20076;-65
2022/05/06 04:54:38;;;;;;;21.48;17.02;;;;;;;12.42;66.99;102481.66;5014579;28;20034;-65
2022/05/06 04:57:04;;;;;;;23.25;18.38;;;;;;;12.33;67.28;102477.41;5014347;28;20022;-65
2022/05/06 04:59:29;;;;;;;24.75;18.88;;;;;;;12.35;67.13;102482.78;5014839;28;20073;-65
2022/05/06 05:01:54;;;;;;;22.80;18.05;;;;;;;12.37;66.88;102495.38;5013962;28;20030;-65
2022/05/06 05:04:19;;;;;;;23.70;18.63;;;;;;;12.38;67.28;102488.75;5003069;28;20113;-65
2022/05/06 05:06:45;;;;;;;25.48;19.63;;;;;;;12.35;67.57;102482.78;4995272;28;20031;-65
2022/05/06 05:09:11;;;;;;;25.05;19.40;;;;;;;12.37;67.47;102497.31;5013382;28;20108;-65
2022/05/06 05:11:36;;;;;;;25.23;18.80;;;;;;;12.41;67.77;102501.34;5014685;28;20034;-65
2022/05/06 05:14:06;;;;;;;27.35;20.10;;;;;;;12.36;67.48;102499.25;5014911;28;20018;-65
2022/05/06 05:16:32;;;;;;;26.02;18.67;;;;;;;12.35;67.66;102503.13;5010147;28;20045;-65
2022/05/06 05:18:57;;;;;;;23.85;18.80;;;;;;;12.42;67.24;102509.50;5013422;28;20026;-65
2022/05/06 05:21:22;;;;;;;24.88;18.65;;;;;;;12.45;67.33;102511.81;5013985;28;20057;-64
2022/05/06 05:23:48;;;;;;;26.50;19.60;;;;;;;12.44;67.99;102512.88;5014111;28;20045;-64
2022/05/06 05:26:13;;;;;;;25.52;20.10;;;;;;;12.50;68.02;102503.66;5013871;28;20354;-64
2022/05/06 05:28:38;;;;;;;28.70;20.65;;;;;;;12.50;68.24;102514.78;5013322;28;20077;-64
2022/05/06 05:31:04;;;;;;;24.83;19.90;;;;;;;12.46;68.02;102512.69;5013284;28;20362;-64
2022/05/06 05:33:29;;;;;;;27.67;20.33;;;;;;;12.40;68.14;102506.06;5014476;28;20755;-64
2022/05/06 05:35:55;;;;;;;26.85;20.17;;;;;;;12.41;68.36;102507.75;5014503;28;20444;-64
2022/05/06 05:38:20;;;;;;;28.30;21.38;;;;;;;12.42;68.67;102508.66;5014317;28;20041;-64
2022/05/06 05:40:45;;;;;;;28.10;20.85;;;;;;;12.43;68.68;102511.19;5014571;28;20135;-64
2022/05/06 05:48:19;;;;;;;30.40;22.27;;;;;;;12.34;69.13;102515.34;5008960;28;20034;-64
2022/05/06 05:48:52;;;;;;;29.08;21.08;;;;;;;12.43;68.99;102519.53;4996060;28;20045;-65
2022/05/06 05:51:20;;;;;;;27.50;20.00;;;;;;;12.43;69.64;102505.63;5009907;28;20030;-64
2022/05/06 05:53:46;;;;;;;29.40;22.05;;;;;;;12.40;69.59;102514.41;4997185;28;20030;-64
2022/05/06 05:56:11;;;;;;;30.92;22.25;;;;;;;12.42;69.62;102511.44;5013795;28;20048;-64
2022/05/06 05:58:37;;;;;;;30.83;22.23;;;;;;;12.41;69.75;102518.06;5004277;28;20446;-64
2022/05/06 06:01:04;;;;;;;30.45;22.52;;;;;;;12.48;69.34;102519.72;5006899;28;20037;-64
2022/05/06 06:03:30;;;;;;;31.17;22.63;;;;;;;12.47;69.74;102512.44;5011116;28;20117;-64
2022/05/06 06:05:55;;;;;;;31.38;22.60;;;;;;;12.50;70.02;102513.94;4998224;28;20137;-65
2022/05/06 06:08:24;;;;;;;31.73;22.73;;;;;;;12.57;70.30;102511.94;5013871;28;20030;-64
2022/05/06 06:10:49;;;;;;;35.78;23.98;;;;;;;12.57;70.05;102511.06;5010020;28;20465;-64
2022/05/06 06:13:22;;;;;;;37.40;25.20;;;;;;;12.54;70.24;102509.63;5012373;28;20045;-65
2022/05/06 06:15:47;;;;;;;41.70;25.33;;;;;;;12.57;70.34;102503.56;4999554;28;20492;-64
2022/05/06 06:18:14;;;;;;;41.28;27.05;;;;;;;12.62;70.82;102508.50;5006503;28;20057;-65
2022/05/06 06:20:39;;;;;;;40.97;26.40;;;;;;;12.58;70.48;102504.47;5002908;28;20026;-65
2022/05/06 06:23:05;;;;;;;40.53;26.10;;;;;;;12.59;70.60;102504.22;4999598;28;20030;-65
2022/05/06 06:25:30;;;;;;;41.00;26.17;;;;;;;12.56;70.03;102501.88;5010059;28;20038;-65
2022/05/06 06:27:55;;;;;;;41.35;26.50;;;;;;;12.61;70.10;102504.81;5008621;28;20038;-64
2022/05/06 06:30:21;;;;;;;44.95;28.83;;;;;;;12.59;70.37;102500.59;4995171;28;20109;-65
2022/05/06 06:32:46;;;;;;;45.50;28.17;;;;;;;12.62;70.64;102503.78;5002671;28;20045;-65
2022/05/06 06:35:11;;;;;;;48.92;29.35;;;;;;;12.70;70.27;102511.84;5010203;28;20091;-65
2022/05/06 06:37:38;;;;;;;48.42;30.05;;;;;;;12.66;70.63;102516.16;5007533;28;20064;-65
2022/05/06 06:40:07;;;;;;;50.95;30.75;;;;;;;12.66;70.55;102513.38;5012615;28;20095;-65
2022/05/06 06:42:32;;;;;;;47.40;30.60;;;;;;;12.64;70.39;102503.53;5005359;28;20481;-65
2022/05/06 06:45:00;;;;;;;51.33;28.75;;;;;;;12.68;71.14;102510.34;5004220;28;20033;-65
2022/05/06 06:47:26;;;;;;;41.42;27.13;;;;;;;12.81;70.01;102512.16;5007771;28;20033;-64
2022/05/06 06:49:51;;;;;;;44.90;28.83;;;;;;;12.80;69.78;102516.88;5000023;28;20022;-63
2022/05/06 06:52:16;;;;;;;45.65;29.30;;;;;;;12.81;69.53;102512.16;4999833;28;20069;-63
2022/05/06 06:54:41;;;;;;;46.20;30.00;;;;;;;12.77;70.23;102515.44;5007373;28;20482;-63
2022/05/06 06:57:07;;;;;;;47.78;30.80;;;;;;;12.77;70.63;102518.22;5012094;28;20029;-64
2022/05/06 06:59:32;;;;;;;31.92;18.58;;;;;;;13.02;68.99;102522.94;5011663;28;20036;-65
2022/05/06 07:01:57;;;;;;;49.20;30.85;;;;;;;12.95;70.51;102527.69;5005155;28;20064;-65
2022/05/06 07:04:23;;;;;;;48.33;30.52;;;;;;;12.95;70.68;102534.13;5004912;28;20470;-64
2022/05/06 07:12:17;;;;;;;41.22;28.00;;;;;;;12.99;70.68;102542.88;5010368;28;20053;-65
2022/05/06 07:14:42;;;;;;;39.70;26.80;;;;;;;12.94;70.11;102543.56;5004228;28;20054;-65
2022/05/06 07:17:07;;;;;;;43.78;27.65;;;;;;;12.93;70.56;102541.88;5011798;28;20026;-65
2022/05/06 07:19:35;;;;;;;38.00;25.75;;;;;;;12.96;69.95;102549.75;5010482;28;20072;-65
2022/05/06 07:22:01;;;;;;;37.95;25.92;;;;;;;12.99;69.64;102540.09;5011582;28;20042;-65
2022/05/06 07:24:26;;;;;;;35.55;25.48;;;;;;;13.05;69.64;102535.53;5011624;28;20026;-64
2022/05/06 07:26:53;;;;;;;36.05;24.67;;;;;;;13.05;69.07;102550.34;5012371;28;20072;-65
2022/05/06 07:29:19;;;;;;;36.00;24.67;;;;;;;13.03;69.26;102558.06;5012319;28;20045;-64
2022/05/06 07:31:45;;;;;;;38.78;25.33;;;;;;;12.94;69.60;102565.03;5005318;28;20392;-64
2022/05/06 07:34:11;;;;;;;39.25;25.40;;;;;;;13.03;69.30;102563.66;5011952;28;20037;-64
2022/05/06 07:36:41;;;;;;;40.35;26.45;;;;;;;12.95;70.08;102567.56;5012479;28;20030;-65
2022/05/06 07:39:10;;;;;;;40.42;27.15;;;;;;;12.98;70.24;102567.13;5011291;28;20030;-65
2022/05/06 07:41:43;;;;;;;44.42;28.50;;;;;;;13.03;70.25;102575.66;5011666;28;20152;-64
2022/05/06 07:44:08;;;;;;;43.20;28.75;;;;;;;13.07;69.96;102575.19;5004792;28;20038;-65
2022/05/06 07:46:35;;;;;;;44.75;28.23;;;;;;;13.08;70.16;102576.91;5011553;28;20026;-65
2022/05/06 07:49:01;;;;;;;41.78;27.80;;;;;;;13.07;69.72;102587.19;5010777;28;20032;-65
2022/05/06 07:51:29;;;;;;;41.53;27.27;;;;;;;13.09;69.38;102581.41;5006380;28;20088;-65
2022/05/06 07:53:56;;;;;;;43.05;29.40;;;;;;;13.11;69.75;102577.28;5011435;28;20202;-65
2022/05/06 07:56:25;;;;;;;41.90;27.08;;;;;;;13.14;69.32;102581.56;5010854;28;20022;-65
2022/05/06 07:58:52;;;;;;;41.10;28.55;;;;;;;13.13;69.35;102588.25;5010266;28;20508;-63
2022/05/06 08:06:51;;;;;;;44.28;28.90;;;;;;;13.15;69.86;102586.06;5009311;28;20080;-64
2022/05/06 08:09:20;;;;;;;50.80;30.45;;;;;;;13.21;69.82;102587.94;5010174;28;20033;-64
2022/05/06 08:11:46;;;;;;;49.47;31.13;;;;;;;13.23;69.73;102594.16;5008368;28;20497;-64
2022/05/06 08:14:12;;;;;;;49.03;30.50;;;;;;;13.28;69.56;102585.97;5010323;28;20030;-64
2022/05/06 08:16:38;;;;;;;50.38;31.95;;;;;;;13.27;69.98;102592.63;5010369;28;20072;-64
2022/05/06 08:19:03;;;;;;;48.00;31.15;;;;;;;13.21;70.18;102593.53;5010036;28;20118;-65
2022/05/06 08:21:32;;;;;;;49.03;31.02;;;;;;;13.25;69.74;102590.09;5006097;28;20034;-64
2022/05/06 08:23:57;;;;;;;46.88;31.17;;;;;;;13.27;69.75;102590.69;5009629;28;20088;-64
2022/05/06 08:26:22;;;;;;;46.35;30.75;;;;;;;13.29;69.60;102586.84;5008993;28;20033;-63
2022/05/06 08:28:48;;;;;;;44.88;29.83;;;;;;;13.34;69.19;102582.25;5010033;28;20104;-63
2022/05/06 08:31:13;;;;;;;44.90;29.02;;;;;;;13.42;69.41;102586.69;5010048;28;20477;-64
2022/05/06 08:33:38;;;;;;;43.45;29.45;;;;;;;13.43;69.48;102583.66;5009595;28;20026;-65
2022/05/06 08:36:06;;;;;;;47.72;31.77;;;;;;;13.45;69.28;102573.16;5010114;28;20038;-65
2022/05/06 08:38:32;;;;;;;46.50;30.13;;;;;;;13.53;68.87;102569.22;5010019;28;20382;-64
2022/05/06 08:40:59;;;;;;;46.38;30.48;;;;;;;13.60;68.32;102569.16;5009681;28;20033;-64
2022/05/06 08:43:24;;;;;;;46.42;29.05;;;;;;;13.65;68.37;102567.34;5010544;28;20037;-65
2022/05/06 08:51:21;;;;;;;45.38;30.92;;;;;;;13.81;68.14;102567.81;5005644;28;20076;-65
2022/05/06 08:53:46;;;;;;;48.25;31.52;;;;;;;13.82;68.44;102555.56;5009386;28;20041;-64
2022/05/06 08:56:12;;;;;;;48.15;31.05;;;;;;;13.94;68.48;102564.84;5008924;28;20029;-64
2022/05/06 08:58:41;;;;;;;50.15;31.15;;;;;;;14.06;68.36;102560.19;5003377;28;20121;-65
2022/05/06 09:01:11;;;;;;;44.22;29.52;;;;;;;14.18;67.63;102563.03;5011128;28;20033;-65
2022/05/06 09:03:38;;;;;;;43.22;29.00;;;;;;;14.26;67.41;102557.13;5010584;28;20038;-64
2022/05/06 09:06:04;;;;;;;42.40;28.50;;;;;;;14.34;67.04;102556.78;5007922;28;20022;-64
2022/05/06 09:08:36;;;;;;;41.10;27.58;;;;;;;14.42;66.40;102550.88;5009439;28;20067;-64
2022/05/06 09:11:04;;;;;;;41.17;27.13;;;;;;;14.53;66.24;102563.22;5000745;28;20041;-64
2022/05/06 09:13:33;;;;;;;40.83;27.33;;;;;;;14.67;65.75;102563.88;4992105;28;20027;-64
2022/05/06 09:16:39;;;;;;;39.20;27.50;;;;;;;14.81;65.84;102553.31;4992374;28;20030;-65
2022/05/06 09:19:23;;;;;;;39.50;27.60;;;;;;;14.92;64.99;102550.53;5009704;28;20445;-65
2022/05/06 09:22:06;;;;;;;37.50;26.40;;;;;;;15.05;64.83;102545.81;4994521;28;20409;-64
2022/05/06 09:24:37;;;;;;;38.38;26.35;;;;;;;15.20;64.19;102547.03;5010327;28;20037;-65
2022/05/06 09:27:11;;;;;;;39.97;25.98;;;;;;;15.32;64.17;102547.03;5010158;28;20156;-65
2022/05/06 09:29:40;;;;;;;35.13;25.83;;;;;;;15.48;64.62;102548.22;5007979;28;20058;-65
2022/05/06 09:32:21;;;;;;;28.52;19.92;;;;;;;15.61;63.13;102542.41;5008338;28;20116;-66
2022/05/06 09:34:54;;;;;;;35.28;25.42;;;;;;;15.79;63.24;102544.19;5010323;28;20042;-64
2022/05/06 09:37:36;;;;;;;35.95;24.35;;;;;;;15.87;62.95;102543.81;4998882;28;20034;-65
2022/05/06 09:40:05;;;;;;;38.03;25.40;;;;;;;15.97;62.62;102543.19;5001471;28;20092;-65
2022/05/06 09:42:30;;;;;;;37.13;24.17;;;;;;;16.01;62.27;102537.94;5007721;28;20125;-65
2022/05/06 09:44:56;;;;;;;32.67;23.35;;;;;;;16.09;62.00;102543.16;5005898;28;20026;-65
2022/05/06 09:47:24;;;;;;;33.67;23.70;;;;;;;16.12;61.77;102537.91;4994399;28;20030;-65
2022/05/06 09:49:50;;;;;;;27.15;20.05;;;;;;;16.13;60.88;102531.19;4993344;28;20022;-65
2022/05/06 09:52:16;;;;;;;30.25;20.63;;;;;;;16.23;61.05;102524.97;4994187;28;20034;-64
2022/05/06 09:54:43;;;;;;;33.90;22.67;;;;;;;16.37;61.97;102523.53;4994525;28;20023;-65
2022/05/06 09:57:14;;;;;;;31.48;20.83;;;;;;;16.57;61.58;102536.22;4994516;28;20046;-65
2022/05/06 09:59:39;;;;;;;29.33;20.52;;;;;;;16.58;60.42;102527.53;4994140;28;20038;-65
2022/05/06 10:02:06;;;;;;;30.60;21.35;;;;;;;16.62;60.38;102531.56;4994396;28;20023;-65
2022/05/06 10:04:31;;;;;;;34.45;21.98;;;;;;;16.64;60.19;102531.31;4994514;28;20469;-65
2022/05/06 10:07:00;;;;;;;27.27;19.95;;;;;;;16.82;60.29;102535.84;4994223;28;20033;-65
2022/05/06 10:09:28;;;;;;;27.05;18.35;;;;;;;16.89;60.02;102528.97;4994541;28;20080;-65
2022/05/06 10:11:55;;;;;;;30.35;18.83;;;;;;;17.00;59.34;102531.94;4994011;28;20126;-65
2022/05/06 10:14:22;;;;;;;28.50;18.13;;;;;;;17.01;59.51;102528.03;4994692;28;20030;-65
2022/05/06 10:16:48;;;;;;;34.38;19.58;;;;;;;17.05;59.06;102523.59;4994254;28;20031;-65
2022/05/06 10:19:27;;;;;;;25.42;18.13;;;;;;;17.13;59.15;102514.75;4994390;28;20109;-65
2022/05/06 10:21:53;;;;;;;28.13;17.90;;;;;;;17.19;58.50;102516.53;4994449;28;20035;-65
2022/05/06 10:24:39;;;;;;;26.08;16.10;;;;;;;17.30;58.79;102515.59;4994399;28;20450;-64
2022/05/06 10:33:18;;;;;;;14.88;11.55;;;;;;;17.45;55.44;102502.88;4994070;28;20080;-64
2022/05/06 10:35:45;;;;;;;17.40;11.07;;;;;;;17.48;55.32;102510.78;4993947;28;20436;-65
2022/05/06 10:38:26;;;;;;;15.57;11.30;;;;;;;17.62;56.67;102507.34;4994165;28;20018;-65
2022/05/06 10:40:56;;;;;;;16.03;12.33;;;;;;;17.67;55.73;102507.41;4993486;28;20481;-64
2022/05/06 10:43:40;;;;;;;19.40;13.30;;;;;;;17.81;56.48;102504.25;4993773;28;20033;-64
2022/05/06 10:46:06;;;;;;;16.83;13.13;;;;;;;17.92;55.75;102506.09;4993964;28;20037;-65
2022/05/06 10:48:31;;;;;;;14.95;12.20;;;;;;;17.97;54.74;102502.47;4993182;28;20386;-65
2022/05/06 10:51:26;;;;;;;16.05;12.15;;;;;;;18.02;55.40;102494.94;4993658;28;20113;-64
2022/05/06 10:53:52;;;;;;;10.35;8.02;;;;;;;18.08;52.08;102487.44;4993673;28;20054;-65
2022/05/06 10:56:17;;;;;;;13.77;8.73;;;;;;;18.14;53.01;102477.94;4992961;28;20065;-64
2022/05/06 10:58:42;;;;;;;13.90;8.82;;;;;;;18.20;52.35;102481.66;4993541;28;20462;-64
2022/05/06 11:01:15;;;;;;;11.98;9.10;;;;;;;18.32;52.81;102479.53;4992613;28;20034;-64
2022/05/06 11:03:54;;;;;;;13.45;9.00;;;;;;;18.38;52.82;102484.91;4993582;28;20030;-64
2022/05/06 11:06:23;;;;;;;13.07;9.50;;;;;;;18.52;51.53;102481.69;4993333;28;20014;-64
2022/05/06 11:08:48;;;;;;;10.18;8.73;;;;;;;18.47;51.13;102484.44;4992862;28;20026;-64
2022/05/06 11:11:18;;;;;;;10.52;8.98;;;;;;;18.67;51.55;102479.03;4993525;28;20041;-64
2022/05/06 11:13:53;;;;;;;10.25;8.25;;;;;;;18.66;50.70;102471.69;4993272;28;20476;-64
2022/05/06 11:16:20;;;;;;;11.48;8.88;;;;;;;18.73;50.43;102463.91;4992773;28;20029;-64
2022/05/06 11:18:47;;;;;;;12.30;7.88;;;;;;;18.84;51.10;102470.47;4992909;28;20716;-64
2022/05/06 11:21:23;;;;;;;11.77;8.52;;;;;;;18.85;51.38;102466.53;4993078;28;20026;-65
2022/05/06 11:23:48;;;;;;;9.98;8.45;;;;;;;18.92;50.25;102458.69;4992833;28;20026;-64
2022/05/06 11:26:26;;;;;;;11.00;7.97;;;;;;;18.93;50.04;102463.19;4993049;28;20087;-64
2022/05/06 11:29:04;;;;;;;9.70;8.13;;;;;;;18.94;49.70;102459.25;4992888;28;20046;-64
2022/05/06 11:31:29;;;;;;;10.88;8.98;;;;;;;19.01;50.00;102456.22;4992237;28;20466;-64
2022/05/06 11:34:10;;;;;;;9.80;8.48;;;;;;;19.13;51.42;102465.31;4992511;28;20026;-64
2022/05/06 11:36:36;;;;;;;7.20;6.18;;;;;;;19.22;47.76;102455.25;4991965;28;20540;-64
2022/05/06 11:39:10;;;;;;;7.10;6.40;;;;;;;19.23;47.67;102454.13;4992743;28;20049;-64
2022/05/06 11:41:36;;;;;;;7.40;6.63;;;;;;;19.41;47.59;102451.94;4992564;28;20041;-65
2022/05/06 11:44:03;;;;;;;10.20;7.28;;;;;;;19.43;46.79;102444.94;4992250;28;20113;-64
2022/05/06 11:49:22;;;;;;;9.40;8.13;;;;;;;19.60;47.93;102454.00;4993067;28;20098;-65
2022/05/06 11:51:48;;;;;;;10.50;8.65;;;;;;;19.65;47.17;102444.78;4991971;28;20478;-64
2022/05/06 11:54:17;;;;;;;12.68;9.35;;;;;;;19.70;47.95;102447.63;4992404;28;20031;-64
2022/05/06 11:56:43;;;;;;;12.27;8.73;;;;;;;19.77;48.01;102441.72;4992386;28;20026;-64